createdAt,value
2023-01-23T00:04:49.852Z,101872.69
2023-01-23T00:09:53.369Z,101877.11
2023-01-23T00:14:56.890Z,101880.21
2023-01-23T00:20:01.122Z,101883.69
2023-01-23T00:25:06.416Z,101890.70
2023-01-23T00:30:11.222Z,101896.74
2023-01-23T00:35:15.045Z,101897.44
2023-01-23T00:40:18.947Z,101893.62
2023-01-23T00:45:22.689Z,101895.65
2023-01-23T00:50:26.204Z,101895.02
2023-01-23T00:55:29.823Z,101893.31
2023-01-23T01:00:33.236Z,101895.73
2023-01-23T01:05:37.280Z,101900.77
2023-01-23T01:10:41.527Z,101899.84
2023-01-23T01:15:44.996Z,101899.09
2023-01-23T01:20:49.344Z,101894.46
2023-01-23T01:25:52.972Z,101899.95
2023-01-23T01:30:57.923Z,101905.47
2023-01-23T01:36:02.363Z,101911.61
2023-01-23T01:41:05.763Z,101913.02
2023-01-23T01:46:21.230Z,101920.63
2023-01-23T01:51:36.124Z,101925.45
2023-01-23T01:57:23.506Z,101920.48
2023-01-23T02:02:32.019Z,101924.29
2023-01-23T02:07:47.934Z,101930.11
2023-01-23T02:12:53.086Z,101935.00
2023-01-23T02:17:56.594Z,101940.98
2023-01-23T02:23:34.819Z,101951.04
2023-01-23T02:28:44.211Z,101962.20
2023-01-23T02:33:55.796Z,101971.36
2023-01-23T02:39:07.309Z,101975.79
2023-01-23T02:44:18.176Z,101971.70
2023-01-23T02:49:22.432Z,101973.67
2023-01-23T02:54:26.643Z,101973.37
2023-01-23T02:59:48.684Z,101970.21
2023-01-23T03:04:52.108Z,101970.52
2023-01-23T03:09:55.718Z,101974.33
2023-01-23T03:14:59.332Z,101973.76
2023-01-23T03:20:04.511Z,101978.91
2023-01-23T03:25:08.339Z,101978.60
2023-01-23T03:30:17.418Z,101979.39
2023-01-23T03:35:21.388Z,101976.84
2023-01-23T03:40:44.043Z,101979.69
2023-01-23T03:45:47.694Z,101977.03
2023-01-23T03:50:51.197Z,101976.17
2023-01-23T03:55:54.694Z,101976.00
2023-01-23T04:00:58.446Z,101984.41
2023-01-23T04:06:02.545Z,101993.44
2023-01-23T04:11:08.894Z,102000.73
2023-01-23T04:16:12.971Z,102013.64
2023-01-23T04:21:16.889Z,102015.80
2023-01-23T04:26:20.294Z,102020.21
2023-01-23T04:31:23.779Z,102009.57
2023-01-23T04:36:27.649Z,102008.36
2023-01-23T04:41:32.177Z,102010.30
2023-01-23T04:46:35.788Z,102013.85
2023-01-23T04:51:39.205Z,102016.48
2023-01-23T04:56:43.536Z,102027.95
2023-01-23T05:01:46.954Z,102036.29
2023-01-23T05:06:50.470Z,102036.90
2023-01-23T05:11:53.990Z,102036.46
2023-01-23T05:16:57.495Z,102041.65
2023-01-23T05:22:00.913Z,102048.08
2023-01-23T05:27:04.636Z,102046.19
2023-01-23T05:32:08.667Z,102047.64
2023-01-23T05:37:12.295Z,102050.05
2023-01-23T05:42:15.687Z,102059.19
2023-01-23T05:47:19.314Z,102061.31
2023-01-23T05:52:22.822Z,102065.36
2023-01-23T05:57:26.443Z,102067.10
2023-01-23T06:02:30.101Z,102067.36
2023-01-23T06:07:33.681Z,102073.45
2023-01-23T06:12:37.498Z,102085.42
2023-01-23T06:17:40.940Z,102091.59
2023-01-23T06:22:44.466Z,102092.67
2023-01-23T06:27:48.351Z,102100.80
2023-01-23T06:32:51.868Z,102104.69
2023-01-23T06:37:55.280Z,102111.09
2023-01-23T06:42:58.897Z,102110.88
2023-01-23T06:48:02.823Z,102125.58
2023-01-23T06:53:06.450Z,102128.61
2023-01-23T06:58:10.071Z,102136.05
2023-01-23T07:03:15.413Z,102151.27
2023-01-23T07:08:18.934Z,102161.09
2023-01-23T07:13:22.451Z,102155.56
2023-01-23T07:18:28.548Z,102155.79
2023-01-23T07:23:32.241Z,102162.25
2023-01-23T07:28:38.933Z,102161.60
2023-01-23T07:33:42.806Z,102161.45
2023-01-23T07:38:46.378Z,102151.36
2023-01-23T07:43:49.895Z,102160.16
2023-01-23T07:48:53.821Z,102161.04
2023-01-23T07:53:57.432Z,102159.19
2023-01-23T07:59:01.358Z,102158.10
2023-01-23T08:04:04.786Z,102162.42
2023-01-23T08:09:08.499Z,102165.92
2023-01-23T08:14:12.416Z,102168.40
2023-01-23T08:19:15.935Z,102171.59
2023-01-23T08:24:19.857Z,102183.05
2023-01-23T08:29:23.267Z,102184.02
2023-01-23T08:34:26.994Z,102185.21
2023-01-23T08:39:30.530Z,102189.86
2023-01-23T08:44:34.634Z,102189.95
2023-01-23T08:49:38.373Z,102187.17
2023-01-23T08:54:41.972Z,102190.45
2023-01-23T08:59:46.003Z,102189.25
2023-01-23T09:04:50.444Z,102196.70
2023-01-23T09:09:55.282Z,102207.30
2023-01-23T09:14:59.926Z,102208.96
2023-01-23T09:20:06.060Z,102206.39
2023-01-23T09:25:10.233Z,102202.57
2023-01-23T09:30:14.496Z,102199.94
2023-01-23T09:35:17.989Z,102203.12
2023-01-23T09:40:25.800Z,102203.11
2023-01-23T09:45:30.718Z,102204.15
2023-01-23T09:50:40.100Z,102205.58
2023-01-23T09:56:15.665Z,102203.05
2023-01-23T10:01:19.144Z,102197.20
2023-01-23T10:06:26.999Z,102195.35
2023-01-23T10:11:46.284Z,102187.52
2023-01-23T10:16:57.196Z,102178.36
2023-01-23T10:22:06.524Z,102171.02
2023-01-23T10:27:42.431Z,102173.56
2023-01-23T10:32:56.255Z,102177.69
2023-01-23T10:38:33.051Z,102184.77
2023-01-23T10:43:37.387Z,102188.52
2023-01-23T10:48:42.910Z,102194.73
2023-01-23T10:54:30.749Z,102193.45
2023-01-23T10:59:49.075Z,102186.91
2023-01-23T11:04:52.946Z,102188.83
2023-01-23T11:10:18.728Z,102187.42
2023-01-23T11:15:24.636Z,102183.08
2023-01-23T11:20:32.416Z,102183.98
2023-01-23T11:25:48.026Z,102186.81
2023-01-23T11:31:11.888Z,102186.38
2023-01-23T11:36:20.337Z,102186.59
2023-01-23T11:41:35.219Z,102191.62
2023-01-23T11:46:57.379Z,102192.39
2023-01-23T11:52:22.595Z,102191.45
2023-01-23T11:57:39.830Z,102185.63
2023-01-23T12:03:21.544Z,102181.23
2023-01-23T12:08:50.665Z,102187.83
2023-01-23T12:13:56.838Z,102187.23
2023-01-23T12:19:22.165Z,102186.09
2023-01-23T12:24:31.722Z,102182.75
2023-01-23T12:30:13.030Z,102181.79
2023-01-23T12:35:44.185Z,102185.53
2023-01-23T12:41:08.491Z,102193.53
2023-01-23T12:46:18.970Z,102191.65
2023-01-23T12:51:37.851Z,102187.50
2023-01-23T12:56:42.766Z,102183.39
2023-01-23T13:02:06.137Z,102191.41
2023-01-23T13:07:57.817Z,102191.20
2023-01-23T13:13:01.976Z,102193.40
2023-01-23T13:18:06.609Z,102198.98
2023-01-23T13:23:30.071Z,102205.66
2023-01-23T13:28:46.417Z,102199.34
2023-01-23T13:33:51.823Z,102202.85
2023-01-23T13:39:05.807Z,102211.37
2023-01-23T13:44:41.496Z,102214.17
2023-01-23T14:22:44.601Z,102224.81
2023-01-23T14:27:53.800Z,102223.86
2023-01-23T14:32:59.588Z,102221.47
2023-01-23T14:38:06.314Z,102224.60
2023-01-23T14:43:17.507Z,102221.67
2023-01-23T14:48:22.233Z,102224.26
2023-01-23T14:53:25.663Z,102229.00
2023-01-23T14:58:30.898Z,102224.45
2023-01-23T15:03:40.286Z,102236.96
2023-01-23T15:08:44.197Z,102231.70
2023-01-23T15:13:55.029Z,102232.71
2023-01-23T15:19:05.601Z,102236.16
2023-01-23T15:24:15.356Z,102235.45
2023-01-23T15:29:20.519Z,102231.45
2023-01-23T15:34:30.903Z,102240.84
2023-01-23T15:39:58.846Z,102236.71
2023-01-23T15:45:03.938Z,102237.23
2023-01-23T15:50:08.048Z,102233.99
2023-01-23T15:55:12.158Z,102236.43
2023-01-23T16:00:25.146Z,102239.52
2023-01-23T16:05:35.712Z,102233.71
2023-01-23T16:10:39.999Z,102235.59
2023-01-23T16:15:43.630Z,102238.15
2023-01-23T16:20:47.349Z,102234.96
2023-01-23T16:25:52.181Z,102240.48
2023-01-23T16:30:56.026Z,102241.04
2023-01-23T16:35:59.550Z,102246.13
2023-01-23T16:41:03.153Z,102245.98
2023-01-23T16:46:06.783Z,102244.21
2023-01-23T16:51:23.458Z,102245.39
2023-01-23T16:56:35.413Z,102252.15
2023-01-23T17:01:41.852Z,102255.25
2023-01-23T17:06:45.306Z,102255.33
2023-01-23T17:11:56.405Z,102254.56
2023-01-23T17:17:07.773Z,102259.90
2023-01-23T17:22:21.668Z,102261.44
2023-01-23T17:27:25.172Z,102261.80
2023-01-23T17:32:34.853Z,102263.23
2023-01-23T17:37:38.456Z,102264.76
2023-01-23T17:42:42.807Z,102269.38
2023-01-23T17:47:53.506Z,102268.45
2023-01-23T17:52:56.883Z,102273.58
2023-01-23T17:58:01.007Z,102277.44
2023-01-23T18:03:04.832Z,102278.45
2023-01-23T18:08:14.697Z,102272.30
2023-01-23T18:13:20.974Z,102272.64
2023-01-23T18:18:31.769Z,102269.97
2023-01-23T18:23:37.237Z,102273.92
2023-01-23T18:29:02.550Z,102273.75
2023-01-23T18:34:12.020Z,102276.39
2023-01-23T18:39:24.327Z,102273.15
2023-01-23T18:44:29.416Z,102272.45
2023-01-23T18:49:33.840Z,102274.17
2023-01-23T18:54:52.180Z,102275.48
2023-01-23T19:00:06.547Z,102271.49
2023-01-23T19:05:18.902Z,102275.48
2023-01-23T19:10:25.797Z,102286.20
2023-01-23T19:15:41.596Z,102291.11
2023-01-23T19:21:01.079Z,102293.19
2023-01-23T19:26:05.191Z,102293.15
2023-01-23T19:31:20.939Z,102289.63
2023-01-23T19:36:25.990Z,102286.63
2023-01-23T19:41:49.429Z,102287.64
2023-01-23T19:46:52.969Z,102284.39
2023-01-23T19:51:56.885Z,102276.74
2023-01-23T19:57:00.380Z,102271.12
2023-01-23T20:02:04.499Z,102274.23
2023-01-23T20:07:10.174Z,102276.20
2023-01-23T20:12:14.002Z,102275.63
2023-01-23T20:17:17.410Z,102277.90
2023-01-23T20:22:21.236Z,102282.88
2023-01-23T20:27:25.059Z,102286.80
2023-01-23T20:32:32.486Z,102291.38
2023-01-23T20:37:35.981Z,102299.02
2023-01-23T20:42:40.591Z,102303.56
2023-01-23T20:47:43.860Z,102304.67
2023-01-23T20:53:05.986Z,102300.59
2023-01-23T20:58:28.237Z,102302.15
2023-01-23T21:03:31.865Z,102305.39
2023-01-23T21:08:35.677Z,102316.25
2023-01-23T21:13:39.093Z,102320.63
2023-01-23T21:18:46.408Z,102330.25
2023-01-23T21:23:51.109Z,102332.42
2023-01-23T21:28:56.321Z,102328.37
2023-01-23T21:34:01.447Z,102328.79
2023-01-23T21:39:06.685Z,102332.55
2023-01-23T21:44:11.894Z,102327.67
2023-01-23T21:49:15.066Z,102318.23
2023-01-23T21:54:18.692Z,102315.78
2023-01-23T21:59:22.504Z,102307.86
2023-01-23T22:04:26.022Z,102303.09
2023-01-23T22:09:29.841Z,102303.60
2023-01-23T22:14:33.357Z,102304.27
2023-01-23T22:19:36.986Z,102302.46
2023-01-23T22:24:40.595Z,102295.21
2023-01-23T22:29:44.109Z,102290.50
2023-01-23T22:34:47.729Z,102288.41
2023-01-23T22:39:51.248Z,102288.23
2023-01-23T22:44:54.859Z,102287.16
2023-01-23T22:49:58.477Z,102288.71
2023-01-23T22:55:01.996Z,102285.27
2023-01-23T23:00:08.859Z,102288.83
2023-01-23T23:05:12.406Z,102290.64
2023-01-23T23:10:15.827Z,102298.09
2023-01-23T23:15:20.843Z,102299.89
2023-01-23T23:20:24.384Z,102298.78
2023-01-23T23:25:27.903Z,102305.20
2023-01-23T23:30:31.619Z,102306.06
2023-01-23T23:35:35.140Z,102308.31
2023-01-23T23:40:39.468Z,102306.14
2023-01-23T23:45:51.861Z,102301.74
2023-01-23T23:50:55.613Z,102305.86
2023-01-23T23:55:59.229Z,102302.19
